sensor_id;sensor_type;location;lat;lon;timestamp;temperature;humidity
5689;DHT22;2869;50.432;8.680;2024-01-07T00:00:13;3.50;99.90
5689;DHT22;2869;50.432;8.680;2024-01-07T00:02:41;3.40;99.90
5689;DHT22;2869;50.432;8.680;2024-01-07T00:05:07;3.50;99.90
5689;DHT22;2869;50.432;8.680;2024-01-07T00:07:34;3.40;99.90
5689;DHT22;2869;50.432;8.680;2024-01-07T00:10:00;3.40;99.90
5689;DHT22;2869;50.432;8.680;2024-01-07T00:12:27;3.40;99.90
5689;DHT22;2869;50.432;8.680;2024-01-07T00:14:53;3.40;99.90
5689;DHT22;2869;50.432;8.680;2024-01-07T00:17:20;3.40;99.90
5689;DHT22;2869;50.432;8.680;2024-01-07T00:19:48;3.40;99.90
5689;DHT22;2869;50.432;8.680;2024-01-07T00:22:14;3.40;99.90
5689;DHT22;2869;50.432;8.680;2024-01-07T00:24:41;3.40;99.90
5689;DHT22;2869;50.432;8.680;2024-01-07T00:27:07;3.40;99.90
5689;DHT22;2869;50.432;8.680;2024-01-07T00:29:34;3.40;99.90
5689;DHT22;2869;50.432;8.680;2024-01-07T00:32:01;3.40;99.90
5689;DHT22;2869;50.432;8.680;2024-01-07T00:34:27;3.40;99.90
5689;DHT22;2869;50.432;8.680;2024-01-07T00:36:55;3.40;99.90
5689;DHT22;2869;50.432;8.680;2024-01-07T00:39:22;3.40;99.90
5689;DHT22;2869;50.432;8.680;2024-01-07T00:41:48;3.40;99.90
5689;DHT22;2869;50.432;8.680;2024-01-07T00:44:15;3.30;99.90
5689;DHT22;2869;50.432;8.680;2024-01-07T00:46:41;3.40;99.90
5689;DHT22;2869;50.432;8.680;2024-01-07T00:49:07;3.40;99.90
5689;DHT22;2869;50.432;8.680;2024-01-07T00:51:33;3.40;99.90
5689;DHT22;2869;50.432;8.680;2024-01-07T00:54:01;3.40;99.90
5689;DHT22;2869;50.432;8.680;2024-01-07T00:56:27;3.40;99.90
5689;DHT22;2869;50.432;8.680;2024-01-07T00:58:54;3.40;99.90
5689;DHT22;2869;50.432;8.680;2024-01-07T01:01:20;3.40;99.90
5689;DHT22;2869;50.432;8.680;2024-01-07T01:03:47;3.40;99.90
5689;DHT22;2869;50.432;8.680;2024-01-07T01:06:13;3.30;99.90
5689;DHT22;2869;50.432;8.680;2024-01-07T01:08:40;3.40;99.90
5689;DHT22;2869;50.432;8.680;2024-01-07T01:11:09;3.40;99.90
5689;DHT22;2869;50.432;8.680;2024-01-07T01:13:36;3.30;99.90
5689;DHT22;2869;50.432;8.680;2024-01-07T01:16:03;3.40;99.90
5689;DHT22;2869;50.432;8.680;2024-01-07T01:18:30;3.40;99.90
5689;DHT22;2869;50.432;8.680;2024-01-07T01:20:56;3.30;99.90
5689;DHT22;2869;50.432;8.680;2024-01-07T01:23:22;3.30;99.90
5689;DHT22;2869;50.432;8.680;2024-01-07T01:25:49;3.40;99.90
5689;DHT22;2869;50.432;8.680;2024-01-07T01:28:17;3.30;99.90
5689;DHT22;2869;50.432;8.680;2024-01-07T01:30:43;3.30;99.90
5689;DHT22;2869;50.432;8.680;2024-01-07T01:33:10;3.30;99.90
5689;DHT22;2869;50.432;8.680;2024-01-07T01:35:36;3.30;99.90
5689;DHT22;2869;50.432;8.680;2024-01-07T01:38:03;3.30;99.90
5689;DHT22;2869;50.432;8.680;2024-01-07T01:40:29;3.30;99.90
5689;DHT22;2869;50.432;8.680;2024-01-07T01:42:56;3.30;99.90
5689;DHT22;2869;50.432;8.680;2024-01-07T01:45:24;3.30;99.90
5689;DHT22;2869;50.432;8.680;2024-01-07T01:47:50;3.30;99.90
5689;DHT22;2869;50.432;8.680;2024-01-07T01:50:17;3.30;99.90
5689;DHT22;2869;50.432;8.680;2024-01-07T01:52:44;3.30;99.90
5689;DHT22;2869;50.432;8.680;2024-01-07T01:55:11;3.30;99.90
5689;DHT22;2869;50.432;8.680;2024-01-07T01:57:37;3.20;99.90
5689;DHT22;2869;50.432;8.680;2024-01-07T02:00:05;3.20;99.90
5689;DHT22;2869;50.432;8.680;2024-01-07T02:02:33;3.20;99.90
5689;DHT22;2869;50.432;8.680;2024-01-07T02:05:00;3.20;99.90
5689;DHT22;2869;50.432;8.680;2024-01-07T02:07:28;3.20;99.90
5689;DHT22;2869;50.432;8.680;2024-01-07T02:09:56;3.20;99.90
5689;DHT22;2869;50.432;8.680;2024-01-07T02:12:22;3.10;99.90
5689;DHT22;2869;50.432;8.680;2024-01-07T02:14:49;3.20;99.90
5689;DHT22;2869;50.432;8.680;2024-01-07T02:17:15;3.20;99.90
5689;DHT22;2869;50.432;8.680;2024-01-07T02:19:43;3.20;99.90
5689;DHT22;2869;50.432;8.680;2024-01-07T02:22:10;3.20;99.90
5689;DHT22;2869;50.432;8.680;2024-01-07T02:24:38;3.20;99.90
5689;DHT22;2869;50.432;8.680;2024-01-07T02:27:04;3.20;99.90
5689;DHT22;2869;50.432;8.680;2024-01-07T02:29:31;3.10;99.90
5689;DHT22;2869;50.432;8.680;2024-01-07T02:31:57;3.20;99.90
5689;DHT22;2869;50.432;8.680;2024-01-07T02:34:24;3.10;99.90
5689;DHT22;2869;50.432;8.680;2024-01-07T02:36:50;3.10;99.90
5689;DHT22;2869;50.432;8.680;2024-01-07T02:39:17;3.10;99.90
5689;DHT22;2869;50.432;8.680;2024-01-07T02:41:45;3.20;99.90
5689;DHT22;2869;50.432;8.680;2024-01-07T02:44:12;3.30;99.90
5689;DHT22;2869;50.432;8.680;2024-01-07T02:46:38;3.10;99.90
5689;DHT22;2869;50.432;8.680;2024-01-07T02:49:05;3.10;99.90
5689;DHT22;2869;50.432;8.680;2024-01-07T02:51:31;3.00;99.90
5689;DHT22;2869;50.432;8.680;2024-01-07T02:53:58;3.10;99.90
5689;DHT22;2869;50.432;8.680;2024-01-07T02:56:23;3.00;99.90
5689;DHT22;2869;50.432;8.680;2024-01-07T02:58:51;3.00;99.90
5689;DHT22;2869;50.432;8.680;2024-01-07T03:01:17;3.00;99.90
5689;DHT22;2869;50.432;8.680;2024-01-07T03:03:44;3.00;99.90
5689;DHT22;2869;50.432;8.680;2024-01-07T03:06:10;3.00;99.90
5689;DHT22;2869;50.432;8.680;2024-01-07T03:08:37;3.00;99.90
5689;DHT22;2869;50.432;8.680;2024-01-07T03:11:04;3.00;99.90
5689;DHT22;2869;50.432;8.680;2024-01-07T03:13:30;3.10;99.90
5689;DHT22;2869;50.432;8.680;2024-01-07T03:15:58;3.10;99.90
5689;DHT22;2869;50.432;8.680;2024-01-07T03:18:25;3.10;99.90
5689;DHT22;2869;50.432;8.680;2024-01-07T03:20:51;3.00;99.90
5689;DHT22;2869;50.432;8.680;2024-01-07T03:23:18;3.10;99.90
5689;DHT22;2869;50.432;8.680;2024-01-07T03:25:44;3.10;99.90
5689;DHT22;2869;50.432;8.680;2024-01-07T03:28:11;3.10;99.90
5689;DHT22;2869;50.432;8.680;2024-01-07T03:30:37;3.10;99.90
5689;DHT22;2869;50.432;8.680;2024-01-07T03:33:05;3.10;99.90
5689;DHT22;2869;50.432;8.680;2024-01-07T03:35:32;3.10;99.90
5689;DHT22;2869;50.432;8.680;2024-01-07T03:37:58;3.20;99.90
5689;DHT22;2869;50.432;8.680;2024-01-07T03:40:25;3.20;99.90
5689;DHT22;2869;50.432;8.680;2024-01-07T03:42:51;3.20;99.90
5689;DHT22;2869;50.432;8.680;2024-01-07T03:45:18;3.20;99.90
5689;DHT22;2869;50.432;8.680;2024-01-07T03:47:44;3.20;99.90
5689;DHT22;2869;50.432;8.680;2024-01-07T03:50:12;3.20;99.90
5689;DHT22;2869;50.432;8.680;2024-01-07T03:52:39;3.20;99.90
5689;DHT22;2869;50.432;8.680;2024-01-07T03:55:06;3.20;99.90
5689;DHT22;2869;50.432;8.680;2024-01-07T03:57:32;3.20;99.90
5689;DHT22;2869;50.432;8.680;2024-01-07T03:59:59;3.20;99.90
5689;DHT22;2869;50.432;8.680;2024-01-07T04:02:25;3.20;99.90
5689;DHT22;2869;50.432;8.680;2024-01-07T04:04:52;3.20;99.90
5689;DHT22;2869;50.432;8.680;2024-01-07T04:07:20;3.20;99.90
5689;DHT22;2869;50.432;8.680;2024-01-07T04:09:46;3.20;99.90
5689;DHT22;2869;50.432;8.680;2024-01-07T04:12:13;3.20;99.90
5689;DHT22;2869;50.432;8.680;2024-01-07T04:14:39;3.20;99.90
5689;DHT22;2869;50.432;8.680;2024-01-07T04:17:06;3.20;99.90
5689;DHT22;2869;50.432;8.680;2024-01-07T04:19:33;3.20;99.90
5689;DHT22;2869;50.432;8.680;2024-01-07T04:22:02;3.20;99.90
5689;DHT22;2869;50.432;8.680;2024-01-07T04:24:30;3.20;99.90
5689;DHT22;2869;50.432;8.680;2024-01-07T04:26:56;3.30;99.90
5689;DHT22;2869;50.432;8.680;2024-01-07T04:29:23;3.20;99.90
5689;DHT22;2869;50.432;8.680;2024-01-07T04:31:49;3.20;99.90
5689;DHT22;2869;50.432;8.680;2024-01-07T04:34:16;3.20;99.90
5689;DHT22;2869;50.432;8.680;2024-01-07T04:36:42;3.20;99.90
5689;DHT22;2869;50.432;8.680;2024-01-07T04:39:09;3.20;99.90
5689;DHT22;2869;50.432;8.680;2024-01-07T04:41:37;3.20;99.90
5689;DHT22;2869;50.432;8.680;2024-01-07T04:44:03;3.10;99.90
5689;DHT22;2869;50.432;8.680;2024-01-07T04:46:29;3.10;99.90
5689;DHT22;2869;50.432;8.680;2024-01-07T04:48:59;3.10;99.90
5689;DHT22;2869;50.432;8.680;2024-01-07T04:51:26;3.10;99.90
5689;DHT22;2869;50.432;8.680;2024-01-07T04:53:52;3.10;99.90
5689;DHT22;2869;50.432;8.680;2024-01-07T04:56:19;3.10;99.90
5689;DHT22;2869;50.432;8.680;2024-01-07T04:58:47;3.10;99.90
5689;DHT22;2869;50.432;8.680;2024-01-07T05:01:13;3.10;99.90
5689;DHT22;2869;50.432;8.680;2024-01-07T05:03:40;3.10;99.90
5689;DHT22;2869;50.432;8.680;2024-01-07T05:06:07;3.10;99.90
5689;DHT22;2869;50.432;8.680;2024-01-07T05:08:34;3.10;99.90
5689;DHT22;2869;50.432;8.680;2024-01-07T05:11:01;3.10;99.90
5689;DHT22;2869;50.432;8.680;2024-01-07T05:13:27;3.10;99.90
5689;DHT22;2869;50.432;8.680;2024-01-07T05:15:55;3.10;99.90
5689;DHT22;2869;50.432;8.680;2024-01-07T05:18:22;3.10;99.90
5689;DHT22;2869;50.432;8.680;2024-01-07T05:20:48;3.10;99.90
5689;DHT22;2869;50.432;8.680;2024-01-07T05:23:15;3.10;99.90
5689;DHT22;2869;50.432;8.680;2024-01-07T05:25:41;3.10;99.90
5689;DHT22;2869;50.432;8.680;2024-01-07T05:28:08;3.10;99.90
5689;DHT22;2869;50.432;8.680;2024-01-07T05:30:35;3.10;99.90
5689;DHT22;2869;50.432;8.680;2024-01-07T05:33:02;3.10;99.90
5689;DHT22;2869;50.432;8.680;2024-01-07T05:35:29;3.10;99.90
5689;DHT22;2869;50.432;8.680;2024-01-07T05:37:56;3.10;99.90
5689;DHT22;2869;50.432;8.680;2024-01-07T05:40:22;3.10;99.90
5689;DHT22;2869;50.432;8.680;2024-01-07T05:42:49;3.10;99.90
5689;DHT22;2869;50.432;8.680;2024-01-07T05:45:15;3.00;99.90
5689;DHT22;2869;50.432;8.680;2024-01-07T05:47:42;3.00;99.90
5689;DHT22;2869;50.432;8.680;2024-01-07T05:50:10;2.90;99.90
5689;DHT22;2869;50.432;8.680;2024-01-07T05:52:36;2.90;99.90
5689;DHT22;2869;50.432;8.680;2024-01-07T05:55:03;2.90;99.90
5689;DHT22;2869;50.432;8.680;2024-01-07T05:57:30;2.90;99.90
5689;DHT22;2869;50.432;8.680;2024-01-07T05:59:56;2.80;99.90
5689;DHT22;2869;50.432;8.680;2024-01-07T06:02:23;2.80;99.90
5689;DHT22;2869;50.432;8.680;2024-01-07T06:04:49;2.80;99.90
5689;DHT22;2869;50.432;8.680;2024-01-07T06:07:17;2.70;99.90
5689;DHT22;2869;50.432;8.680;2024-01-07T06:09:44;2.70;99.90
5689;DHT22;2869;50.432;8.680;2024-01-07T06:12:10;2.70;99.90
5689;DHT22;2869;50.432;8.680;2024-01-07T06:14:37;2.60;99.90
5689;DHT22;2869;50.432;8.680;2024-01-07T06:17:03;2.50;99.90
5689;DHT22;2869;50.432;8.680;2024-01-07T06:19:30;2.50;99.90
5689;DHT22;2869;50.432;8.680;2024-01-07T06:21:57;2.50;99.90
5689;DHT22;2869;50.432;8.680;2024-01-07T06:24:24;2.60;99.90
5689;DHT22;2869;50.432;8.680;2024-01-07T06:26:51;2.40;99.90
5689;DHT22;2869;50.432;8.680;2024-01-07T06:29:17;2.60;99.90
5689;DHT22;2869;50.432;8.680;2024-01-07T06:31:44;2.60;99.90
5689;DHT22;2869;50.432;8.680;2024-01-07T06:34:11;2.50;99.90
5689;DHT22;2869;50.432;8.680;2024-01-07T06:36:39;2.50;99.90
5689;DHT22;2869;50.432;8.680;2024-01-07T06:39:05;2.50;99.90
5689;DHT22;2869;50.432;8.680;2024-01-07T06:41:34;2.50;99.90
5689;DHT22;2869;50.432;8.680;2024-01-07T06:44:01;2.60;99.90
5689;DHT22;2869;50.432;8.680;2024-01-07T06:46:27;2.50;99.90
5689;DHT22;2869;50.432;8.680;2024-01-07T06:48:54;2.60;99.90
5689;DHT22;2869;50.432;8.680;2024-01-07T06:51:20;2.60;99.90
5689;DHT22;2869;50.432;8.680;2024-01-07T06:53:47;2.50;99.90
5689;DHT22;2869;50.432;8.680;2024-01-07T06:56:15;2.50;99.90
5689;DHT22;2869;50.432;8.680;2024-01-07T06:58:43;2.50;99.90
5689;DHT22;2869;50.432;8.680;2024-01-07T07:01:10;2.50;99.90
5689;DHT22;2869;50.432;8.680;2024-01-07T07:03:36;2.50;99.90
5689;DHT22;2869;50.432;8.680;2024-01-07T07:06:03;2.60;99.90
5689;DHT22;2869;50.432;8.680;2024-01-07T07:08:30;2.50;99.90
5689;DHT22;2869;50.432;8.680;2024-01-07T07:10:56;2.50;99.90
5689;DHT22;2869;50.432;8.680;2024-01-07T07:13:23;2.60;99.90
5689;DHT22;2869;50.432;8.680;2024-01-07T07:15:50;2.60;99.90
5689;DHT22;2869;50.432;8.680;2024-01-07T07:18:17;2.40;99.90
5689;DHT22;2869;50.432;8.680;2024-01-07T07:20:43;3.00;99.90
5689;DHT22;2869;50.432;8.680;2024-01-07T07:23:10;2.40;99.90
5689;DHT22;2869;50.432;8.680;2024-01-07T07:25:36;2.50;99.90
5689;DHT22;2869;50.432;8.680;2024-01-07T07:28:03;2.40;99.90
5689;DHT22;2869;50.432;8.680;2024-01-07T07:30:30;2.30;99.90
5689;DHT22;2869;50.432;8.680;2024-01-07T07:32:57;2.30;99.90
5689;DHT22;2869;50.432;8.680;2024-01-07T07:35:23;2.30;99.90
5689;DHT22;2869;50.432;8.680;2024-01-07T07:37:50;2.20;99.90
5689;DHT22;2869;50.432;8.680;2024-01-07T07:40:16;2.30;99.90
5689;DHT22;2869;50.432;8.680;2024-01-07T07:42:44;2.20;99.90
5689;DHT22;2869;50.432;8.680;2024-01-07T07:45:10;2.20;99.90
5689;DHT22;2869;50.432;8.680;2024-01-07T07:47:37;2.20;99.90
5689;DHT22;2869;50.432;8.680;2024-01-07T07:50:07;2.20;99.90
5689;DHT22;2869;50.432;8.680;2024-01-07T07:52:34;2.20;99.90
5689;DHT22;2869;50.432;8.680;2024-01-07T07:55:00;2.20;99.90
5689;DHT22;2869;50.432;8.680;2024-01-07T07:57:27;2.20;99.90
5689;DHT22;2869;50.432;8.680;2024-01-07T07:59:54;2.20;99.90
5689;DHT22;2869;50.432;8.680;2024-01-07T08:02:20;2.10;99.90
5689;DHT22;2869;50.432;8.680;2024-01-07T08:04:47;2.10;99.90
5689;DHT22;2869;50.432;8.680;2024-01-07T08:07:15;2.10;99.90
5689;DHT22;2869;50.432;8.680;2024-01-07T08:09:41;2.10;99.90
5689;DHT22;2869;50.432;8.680;2024-01-07T08:12:08;2.10;99.90
5689;DHT22;2869;50.432;8.680;2024-01-07T08:14:34;2.10;99.90
5689;DHT22;2869;50.432;8.680;2024-01-07T08:17:01;2.10;99.90
5689;DHT22;2869;50.432;8.680;2024-01-07T08:19:29;2.10;99.90
5689;DHT22;2869;50.432;8.680;2024-01-07T08:21:56;2.10;99.90
5689;DHT22;2869;50.432;8.680;2024-01-07T08:24:24;2.10;99.90
5689;DHT22;2869;50.432;8.680;2024-01-07T08:26:50;2.10;99.90
5689;DHT22;2869;50.432;8.680;2024-01-07T08:29:17;2.00;99.90
5689;DHT22;2869;50.432;8.680;2024-01-07T08:31:43;2.00;99.90
5689;DHT22;2869;50.432;8.680;2024-01-07T08:34:10;2.50;99.90
5689;DHT22;2869;50.432;8.680;2024-01-07T08:36:36;3.70;99.90
5689;DHT22;2869;50.432;8.680;2024-01-07T08:39:03;5.10;99.90
5689;DHT22;2869;50.432;8.680;2024-01-07T08:41:31;5.80;99.90
5689;DHT22;2869;50.432;8.680;2024-01-07T08:43:58;5.70;99.90
5689;DHT22;2869;50.432;8.680;2024-01-07T08:46:24;5.10;99.90
5689;DHT22;2869;50.432;8.680;2024-01-07T08:48:51;4.30;99.90
5689;DHT22;2869;50.432;8.680;2024-01-07T08:51:17;3.70;99.90
5689;DHT22;2869;50.432;8.680;2024-01-07T08:53:43;3.30;99.90
5689;DHT22;2869;50.432;8.680;2024-01-07T08:56:10;2.90;99.90
5689;DHT22;2869;50.432;8.680;2024-01-07T08:58:41;2.60;99.90
5689;DHT22;2869;50.432;8.680;2024-01-07T09:01:07;2.40;99.90
5689;DHT22;2869;50.432;8.680;2024-01-07T09:03:34;2.30;99.90
5689;DHT22;2869;50.432;8.680;2024-01-07T09:06:00;2.20;99.90
5689;DHT22;2869;50.432;8.680;2024-01-07T09:08:27;2.10;99.90
5689;DHT22;2869;50.432;8.680;2024-01-07T09:10:54;2.10;99.90
5689;DHT22;2869;50.432;8.680;2024-01-07T09:13:20;2.10;99.90
5689;DHT22;2869;50.432;8.680;2024-01-07T09:15:50;2.10;99.90
5689;DHT22;2869;50.432;8.680;2024-01-07T09:18:17;2.10;99.90
5689;DHT22;2869;50.432;8.680;2024-01-07T09:20:43;2.10;99.90
5689;DHT22;2869;50.432;8.680;2024-01-07T09:23:10;2.20;99.90
5689;DHT22;2869;50.432;8.680;2024-01-07T09:25:36;2.10;99.90
5689;DHT22;2869;50.432;8.680;2024-01-07T09:28:03;2.10;99.90
5689;DHT22;2869;50.432;8.680;2024-01-07T09:30:30;2.10;99.90
5689;DHT22;2869;50.432;8.680;2024-01-07T09:32:58;2.10;99.90
5689;DHT22;2869;50.432;8.680;2024-01-07T09:35:25;2.00;99.90
5689;DHT22;2869;50.432;8.680;2024-01-07T09:37:51;2.00;99.90
5689;DHT22;2869;50.432;8.680;2024-01-07T09:40:18;2.00;99.90
5689;DHT22;2869;50.432;8.680;2024-01-07T09:42:45;2.00;99.90
5689;DHT22;2869;50.432;8.680;2024-01-07T09:45:12;2.00;99.90
5689;DHT22;2869;50.432;8.680;2024-01-07T09:47:39;2.10;99.90
5689;DHT22;2869;50.432;8.680;2024-01-07T09:50:07;1.90;99.90
5689;DHT22;2869;50.432;8.680;2024-01-07T09:52:34;1.90;99.90
5689;DHT22;2869;50.432;8.680;2024-01-07T09:55:02;1.80;99.90
5689;DHT22;2869;50.432;8.680;2024-01-07T09:57:29;1.80;99.90
5689;DHT22;2869;50.432;8.680;2024-01-07T09:59:55;1.70;99.90
5689;DHT22;2869;50.432;8.680;2024-01-07T10:02:22;1.70;99.90
5689;DHT22;2869;50.432;8.680;2024-01-07T10:04:49;1.70;99.90
5689;DHT22;2869;50.432;8.680;2024-01-07T10:07:17;1.70;99.90
5689;DHT22;2869;50.432;8.680;2024-01-07T10:09:43;1.70;99.90
5689;DHT22;2869;50.432;8.680;2024-01-07T10:12:10;1.70;99.90
5689;DHT22;2869;50.432;8.680;2024-01-07T10:14:37;1.70;99.90
5689;DHT22;2869;50.432;8.680;2024-01-07T10:17:11;1.60;99.90
5689;DHT22;2869;50.432;8.680;2024-01-07T10:19:40;1.60;99.90
5689;DHT22;2869;50.432;8.680;2024-01-07T10:22:06;1.50;99.90
5689;DHT22;2869;50.432;8.680;2024-01-07T10:24:37;1.50;99.90
5689;DHT22;2869;50.432;8.680;2024-01-07T10:27:05;1.50;99.90
5689;DHT22;2869;50.432;8.680;2024-01-07T10:29:32;1.50;99.90
5689;DHT22;2869;50.432;8.680;2024-01-07T10:31:59;1.50;99.90
5689;DHT22;2869;50.432;8.680;2024-01-07T10:34:28;1.50;99.90
5689;DHT22;2869;50.432;8.680;2024-01-07T10:36:55;1.50;99.90
5689;DHT22;2869;50.432;8.680;2024-01-07T10:39:22;1.50;99.90
5689;DHT22;2869;50.432;8.680;2024-01-07T10:41:51;1.50;99.90
5689;DHT22;2869;50.432;8.680;2024-01-07T10:44:19;1.60;99.90
5689;DHT22;2869;50.432;8.680;2024-01-07T10:46:46;1.60;99.90
5689;DHT22;2869;50.432;8.680;2024-01-07T10:49:19;1.50;99.90
5689;DHT22;2869;50.432;8.680;2024-01-07T10:51:46;1.50;99.90
5689;DHT22;2869;50.432;8.680;2024-01-07T10:54:17;1.60;99.90
5689;DHT22;2869;50.432;8.680;2024-01-07T10:56:47;1.60;99.90
5689;DHT22;2869;50.432;8.680;2024-01-07T10:59:15;1.60;99.90
5689;DHT22;2869;50.432;8.680;2024-01-07T11:01:42;1.50;99.90
5689;DHT22;2869;50.432;8.680;2024-01-07T11:04:11;1.40;99.90
5689;DHT22;2869;50.432;8.680;2024-01-07T11:06:41;1.40;99.90
5689;DHT22;2869;50.432;8.680;2024-01-07T11:09:12;1.40;99.90
5689;DHT22;2869;50.432;8.680;2024-01-07T11:11:40;1.40;99.90
5689;DHT22;2869;50.432;8.680;2024-01-07T11:16:50;1.30;99.90
5689;DHT22;2869;50.432;8.680;2024-01-07T11:19:19;1.20;99.90
5689;DHT22;2869;50.432;8.680;2024-01-07T11:21:46;1.20;99.90
5689;DHT22;2869;50.432;8.680;2024-01-07T11:26:54;1.10;99.90
5689;DHT22;2869;50.432;8.680;2024-01-07T11:29:20;0.70;99.90
5689;DHT22;2869;50.432;8.680;2024-01-07T11:31:47;1.10;99.90
5689;DHT22;2869;50.432;8.680;2024-01-07T11:36:56;1.00;99.90
5689;DHT22;2869;50.432;8.680;2024-01-07T11:39:22;1.10;99.90
5689;DHT22;2869;50.432;8.680;2024-01-07T11:41:49;1.10;99.90
5689;DHT22;2869;50.432;8.680;2024-01-07T11:44:15;1.10;99.90
5689;DHT22;2869;50.432;8.680;2024-01-07T11:46:42;1.20;99.90
5689;DHT22;2869;50.432;8.680;2024-01-07T11:49:09;1.20;99.90
5689;DHT22;2869;50.432;8.680;2024-01-07T11:51:35;1.20;99.90
5689;DHT22;2869;50.432;8.680;2024-01-07T11:54:04;1.10;99.90
5689;DHT22;2869;50.432;8.680;2024-01-07T11:56:32;1.10;99.90
5689;DHT22;2869;50.432;8.680;2024-01-07T11:58:59;1.20;99.90
5689;DHT22;2869;50.432;8.680;2024-01-07T12:01:26;1.10;99.90
5689;DHT22;2869;50.432;8.680;2024-01-07T12:03:52;1.10;99.90
5689;DHT22;2869;50.432;8.680;2024-01-07T12:06:19;1.10;99.90
5689;DHT22;2869;50.432;8.680;2024-01-07T12:08:45;1.20;99.90
5689;DHT22;2869;50.432;8.680;2024-01-07T12:11:14;1.10;99.90
5689;DHT22;2869;50.432;8.680;2024-01-07T12:13:40;1.10;99.90
5689;DHT22;2869;50.432;8.680;2024-01-07T12:16:08;1.10;99.90
5689;DHT22;2869;50.432;8.680;2024-01-07T12:18:35;1.20;99.90
5689;DHT22;2869;50.432;8.680;2024-01-07T12:21:03;1.00;99.90
5689;DHT22;2869;50.432;8.680;2024-01-07T12:23:33;1.00;99.90
5689;DHT22;2869;50.432;8.680;2024-01-07T12:26:06;0.90;99.90
5689;DHT22;2869;50.432;8.680;2024-01-07T12:28:34;0.90;99.90
5689;DHT22;2869;50.432;8.680;2024-01-07T12:31:01;0.90;99.90
5689;DHT22;2869;50.432;8.680;2024-01-07T12:33:28;0.70;99.90
5689;DHT22;2869;50.432;8.680;2024-01-07T12:35:56;0.70;99.90
5689;DHT22;2869;50.432;8.680;2024-01-07T12:38:23;0.50;99.90
5689;DHT22;2869;50.432;8.680;2024-01-07T12:40:50;0.50;99.90
5689;DHT22;2869;50.432;8.680;2024-01-07T12:43:16;0.60;99.90
5689;DHT22;2869;50.432;8.680;2024-01-07T12:45:44;0.60;99.90
5689;DHT22;2869;50.432;8.680;2024-01-07T12:48:11;0.50;99.90
5689;DHT22;2869;50.432;8.680;2024-01-07T12:50:38;0.50;99.90
5689;DHT22;2869;50.432;8.680;2024-01-07T12:53:04;0.50;99.90
5689;DHT22;2869;50.432;8.680;2024-01-07T12:55:31;0.40;99.90
5689;DHT22;2869;50.432;8.680;2024-01-07T12:57:58;0.40;99.90
5689;DHT22;2869;50.432;8.680;2024-01-07T13:00:24;0.40;99.90
5689;DHT22;2869;50.432;8.680;2024-01-07T13:02:53;0.40;99.90
5689;DHT22;2869;50.432;8.680;2024-01-07T13:05:19;0.40;99.90
5689;DHT22;2869;50.432;8.680;2024-01-07T13:07:46;0.50;99.90
5689;DHT22;2869;50.432;8.680;2024-01-07T13:10:12;0.40;99.90
5689;DHT22;2869;50.432;8.680;2024-01-07T13:12:39;0.30;99.90
5689;DHT22;2869;50.432;8.680;2024-01-07T13:15:06;0.40;99.90
5689;DHT22;2869;50.432;8.680;2024-01-07T13:17:33;0.40;99.90
5689;DHT22;2869;50.432;8.680;2024-01-07T13:20:00;0.50;99.90
5689;DHT22;2869;50.432;8.680;2024-01-07T13:22:32;0.30;99.90
5689;DHT22;2869;50.432;8.680;2024-01-07T13:24:58;0.30;99.90
5689;DHT22;2869;50.432;8.680;2024-01-07T13:27:25;0.30;99.90
5689;DHT22;2869;50.432;8.680;2024-01-07T13:29:52;0.30;99.90
5689;DHT22;2869;50.432;8.680;2024-01-07T13:32:18;0.40;99.90
5689;DHT22;2869;50.432;8.680;2024-01-07T13:34:45;0.20;99.90
5689;DHT22;2869;50.432;8.680;2024-01-07T13:37:12;0.30;99.90
5689;DHT22;2869;50.432;8.680;2024-01-07T13:39:39;0.20;99.90
5689;DHT22;2869;50.432;8.680;2024-01-07T13:42:05;0.10;99.90
5689;DHT22;2869;50.432;8.680;2024-01-07T13:44:32;0.10;99.90
5689;DHT22;2869;50.432;8.680;2024-01-07T13:47:00;0.10;99.90
5689;DHT22;2869;50.432;8.680;2024-01-07T13:49:26;0.00;99.90
5689;DHT22;2869;50.432;8.680;2024-01-07T13:51:53;0.00;99.90
5689;DHT22;2869;50.432;8.680;2024-01-07T13:54:21;0.00;99.90
5689;DHT22;2869;50.432;8.680;2024-01-07T13:56:48;-0.10;99.90
5689;DHT22;2869;50.432;8.680;2024-01-07T13:59:16;0.00;99.90
5689;DHT22;2869;50.432;8.680;2024-01-07T14:01:43;-0.20;99.90
5689;DHT22;2869;50.432;8.680;2024-01-07T14:04:09;-0.10;99.90
5689;DHT22;2869;50.432;8.680;2024-01-07T14:06:36;-0.20;99.90
5689;DHT22;2869;50.432;8.680;2024-01-07T14:09:02;-0.20;99.90
5689;DHT22;2869;50.432;8.680;2024-01-07T14:11:30;-0.20;99.90
5689;DHT22;2869;50.432;8.680;2024-01-07T14:13:57;-0.30;99.90
5689;DHT22;2869;50.432;8.680;2024-01-07T14:16:23;-0.30;99.90
5689;DHT22;2869;50.432;8.680;2024-01-07T14:18:50;-0.30;99.90
5689;DHT22;2869;50.432;8.680;2024-01-07T14:21:16;-0.30;99.90
5689;DHT22;2869;50.432;8.680;2024-01-07T14:23:43;-0.40;99.90
5689;DHT22;2869;50.432;8.680;2024-01-07T14:26:09;-0.40;99.90
5689;DHT22;2869;50.432;8.680;2024-01-07T14:28:37;-0.40;99.90
5689;DHT22;2869;50.432;8.680;2024-01-07T14:31:03;-0.40;99.90
5689;DHT22;2869;50.432;8.680;2024-01-07T14:33:30;-0.40;99.90
5689;DHT22;2869;50.432;8.680;2024-01-07T14:35:56;-0.40;99.90
5689;DHT22;2869;50.432;8.680;2024-01-07T14:38:23;-0.40;99.90
5689;DHT22;2869;50.432;8.680;2024-01-07T14:40:50;-0.40;99.90
5689;DHT22;2869;50.432;8.680;2024-01-07T14:43:17;-0.40;99.90
5689;DHT22;2869;50.432;8.680;2024-01-07T14:45:45;-0.40;99.90
5689;DHT22;2869;50.432;8.680;2024-01-07T14:48:12;-0.40;99.90
5689;DHT22;2869;50.432;8.680;2024-01-07T14:50:39;-0.60;99.90
5689;DHT22;2869;50.432;8.680;2024-01-07T14:53:06;-0.60;99.90
5689;DHT22;2869;50.432;8.680;2024-01-07T14:55:32;-0.70;99.90
5689;DHT22;2869;50.432;8.680;2024-01-07T14:57:59;-0.70;99.90
5689;DHT22;2869;50.432;8.680;2024-01-07T15:00:25;-0.70;99.90
5689;DHT22;2869;50.432;8.680;2024-01-07T15:02:53;-0.80;99.90
5689;DHT22;2869;50.432;8.680;2024-01-07T15:05:20;-0.70;99.90
5689;DHT22;2869;50.432;8.680;2024-01-07T15:07:47;-0.90;99.90
5689;DHT22;2869;50.432;8.680;2024-01-07T15:10:15;-0.80;99.90
5689;DHT22;2869;50.432;8.680;2024-01-07T15:12:42;-0.90;99.90
5689;DHT22;2869;50.432;8.680;2024-01-07T15:15:08;-0.90;99.90
5689;DHT22;2869;50.432;8.680;2024-01-07T15:17:36;-0.90;99.90
5689;DHT22;2869;50.432;8.680;2024-01-07T15:20:05;-0.90;99.90
5689;DHT22;2869;50.432;8.680;2024-01-07T15:22:32;-0.90;99.90
5689;DHT22;2869;50.432;8.680;2024-01-07T15:24:58;-0.90;99.90
5689;DHT22;2869;50.432;8.680;2024-01-07T15:27:25;-0.90;99.90
5689;DHT22;2869;50.432;8.680;2024-01-07T15:29:53;-0.90;99.90
5689;DHT22;2869;50.432;8.680;2024-01-07T15:32:20;-0.90;99.90
5689;DHT22;2869;50.432;8.680;2024-01-07T15:34:46;-0.90;99.90
5689;DHT22;2869;50.432;8.680;2024-01-07T15:37:14;-0.90;99.90
5689;DHT22;2869;50.432;8.680;2024-01-07T15:39:41;-0.90;99.90
5689;DHT22;2869;50.432;8.680;2024-01-07T15:42:07;-1.00;99.90
5689;DHT22;2869;50.432;8.680;2024-01-07T15:44:34;-0.90;99.90
5689;DHT22;2869;50.432;8.680;2024-01-07T15:47:00;-0.90;99.90
5689;DHT22;2869;50.432;8.680;2024-01-07T15:49:29;-1.00;99.90
5689;DHT22;2869;50.432;8.680;2024-01-07T15:51:55;-1.10;99.90
5689;DHT22;2869;50.432;8.680;2024-01-07T15:54:24;-1.10;99.90
5689;DHT22;2869;50.432;8.680;2024-01-07T15:56:50;-1.10;99.90
5689;DHT22;2869;50.432;8.680;2024-01-07T15:59:17;-1.20;99.90
5689;DHT22;2869;50.432;8.680;2024-01-07T16:01:45;-1.20;99.90
5689;DHT22;2869;50.432;8.680;2024-01-07T16:04:12;-1.30;99.90
5689;DHT22;2869;50.432;8.680;2024-01-07T16:06:39;-1.30;99.90
5689;DHT22;2869;50.432;8.680;2024-01-07T16:09:06;-1.30;99.90
5689;DHT22;2869;50.432;8.680;2024-01-07T16:11:34;-1.30;99.90
5689;DHT22;2869;50.432;8.680;2024-01-07T16:14:01;-1.40;99.90
5689;DHT22;2869;50.432;8.680;2024-01-07T16:16:27;-1.30;99.90
5689;DHT22;2869;50.432;8.680;2024-01-07T16:18:54;-1.40;99.90